Time;durP1;ratioP1;P1;durP2;ratioP2;P2;SDS_P1;SDS_P2;PMS_P1;PMS_P2;Temp;Humidity;BMP_temperature;BMP_pressure;BME280_temperature;BME280_humidity;BME280_pressure;Samples;Min_cycle;Max_cycle;Signal;HPM_P1;HPM_P2
2023/11/11 00:01:23;;;;;;;7.82;2.88;;;;;;;4.05;76.34;98967.69;4999656;28;20412;-42
2023/11/11 00:03:50;;;;;;;7.10;4.40;;;;;;;4.03;76.40;98964.28;4982925;28;20046;-39
2023/11/11 00:06:17;;;;;;;6.72;4.13;;;;;;;4.01;76.49;98968.53;4987557;28;20050;-44
2023/11/11 00:08:44;;;;;;;5.70;3.45;;;;;;;3.99;76.21;98971.09;4984101;28;20538;-44
2023/11/11 00:11:11;;;;;;;7.28;3.78;;;;;;;3.97;76.49;98974.50;4984854;28;20046;-42
2023/11/11 00:13:38;;;;;;;7.43;4.30;;;;;;;3.94;76.45;98969.34;4985872;28;20096;-40
2023/11/11 00:16:05;;;;;;;7.63;4.05;;;;;;;3.94;76.46;98969.34;4981520;28;20046;-46
2023/11/11 00:18:33;;;;;;;8.07;5.13;;;;;;;3.91;76.25;98971.88;4982391;28;20491;-45
2023/11/11 00:21:00;;;;;;;7.35;5.13;;;;;;;3.90;76.40;98982.97;4985514;28;20072;-45
2023/11/11 00:23:27;;;;;;;9.73;4.10;;;;;;;3.87;76.75;98978.69;4984970;28;20046;-53
2023/11/11 00:25:54;;;;;;;7.82;4.20;;;;;;;3.83;76.22;98980.38;4981672;28;20145;-46
2023/11/11 00:28:22;;;;;;;6.22;4.22;;;;;;;3.83;76.25;98987.19;4987381;28;20141;-44
2023/11/11 00:30:50;;;;;;;8.43;5.25;;;;;;;3.81;76.73;98983.75;4989881;28;20136;-42
2023/11/11 00:33:19;;;;;;;6.18;4.13;;;;;;;3.79;76.66;98986.34;4987500;28;20050;-48
2023/11/11 00:35:46;;;;;;;6.22;4.15;;;;;;;3.78;76.69;98984.59;4990309;28;20101;-43
2023/11/11 00:38:13;;;;;;;8.95;4.40;;;;;;;3.78;76.11;98986.31;4986797;28;20143;-45
2023/11/11 00:40:40;;;;;;;7.05;2.55;;;;;;;3.76;76.60;98986.31;4986502;28;20439;-46
2023/11/11 00:43:08;;;;;;;11.20;4.25;;;;;;;3.75;76.45;98984.56;4983245;28;20054;-42
2023/11/11 00:45:35;;;;;;;8.88;4.18;;;;;;;3.73;76.69;98986.28;4988448;28;20046;-49
2023/11/11 00:48:02;;;;;;;7.72;4.95;;;;;;;3.72;76.70;98984.56;4987770;28;20046;-48
2023/11/11 00:50:29;;;;;;;7.13;3.97;;;;;;;3.70;76.12;98986.25;4988054;28;20076;-41
2023/11/11 00:52:55;;;;;;;6.82;3.47;;;;;;;3.68;76.38;98987.94;4984264;28;20120;-41
2023/11/11 00:55:22;;;;;;;7.85;3.72;;;;;;;3.65;76.51;98988.75;4987951;28;21655;-43
2023/11/11 00:57:49;;;;;;;8.07;4.63;;;;;;;3.64;76.62;98996.44;4989040;28;20042;-47
2023/11/11 01:00:19;;;;;;;6.75;4.07;;;;;;;3.62;76.75;98993.00;4986226;28;20509;-44
2023/11/11 01:02:46;;;;;;;7.38;3.88;;;;;;;3.58;76.70;98987.84;4986059;28;20049;-45
2023/11/11 01:05:14;;;;;;;6.35;4.07;;;;;;;3.57;77.02;98992.97;4989318;28;20499;-39
2023/11/11 01:07:40;;;;;;;7.15;3.45;;;;;;;3.55;76.64;98999.78;5000855;28;20054;-41
2023/11/11 01:10:08;;;;;;;6.50;4.05;;;;;;;3.53;76.57;98998.91;4989254;28;20042;-43
2023/11/11 01:12:35;;;;;;;8.07;3.45;;;;;;;3.51;76.45;98991.19;4989286;28;20069;-43
2023/11/11 01:15:08;;;;;;;6.22;4.30;;;;;;;3.48;76.97;98991.19;4989248;28;20049;-47
2023/11/11 01:17:36;;;;;;;6.05;4.13;;;;;;;3.46;75.68;98992.88;4987564;28;20128;-46
2023/11/11 01:20:03;;;;;;;5.93;4.60;;;;;;;3.44;76.50;99000.53;4984474;28;20492;-40
2023/11/11 01:22:31;;;;;;;4.75;4.03;;;;;;;3.42;77.04;98996.25;4986392;28;20046;-46
2023/11/11 01:24:58;;;;;;;5.60;4.20;;;;;;;3.40;77.04;99001.34;4996577;28;20043;-49
2023/11/11 01:27:24;;;;;;;4.72;3.20;;;;;;;3.38;76.76;99008.16;4982535;28;20043;-49
2023/11/11 01:29:51;;;;;;;4.10;1.98;;;;;;;3.37;77.04;99003.03;4985032;28;22181;-51
2023/11/11 01:32:19;;;;;;;7.53;3.63;;;;;;;3.37;76.34;98997.91;4988465;28;20042;-42
2023/11/11 01:34:45;;;;;;;5.15;4.15;;;;;;;3.35;77.28;99000.47;4984825;28;20054;-47
2023/11/11 01:37:12;;;;;;;4.78;3.83;;;;;;;3.34;77.01;99007.28;4989686;28;20499;-41
2023/11/11 01:39:41;;;;;;;8.13;4.00;;;;;;;3.31;77.00;99004.66;4988440;28;20053;-47
2023/11/11 01:42:07;;;;;;;5.35;3.30;;;;;;;3.30;76.51;99013.19;4989669;28;20141;-48
2023/11/11 01:44:34;;;;;;;7.65;5.55;;;;;;;3.28;76.60;99020.00;4988960;28;20101;-46
2023/11/11 01:47:06;;;;;;;6.25;3.60;;;;;;;3.25;77.01;99014.88;4987296;28;20061;-42
2023/11/11 01:49:34;;;;;;;6.22;4.05;;;;;;;3.24;76.66;99019.97;4989621;28;20105;-42
2023/11/11 01:52:02;;;;;;;3.85;3.05;;;;;;;3.21;76.99;99013.13;4988761;28;20042;-41
2023/11/11 01:54:29;;;;;;;4.88;3.85;;;;;;;3.22;76.55;99014.81;4991286;28;20042;-48
2023/11/11 01:56:57;;;;;;;6.85;3.95;;;;;;;3.21;77.47;99013.97;4985865;28;20049;-44
2023/11/11 01:59:26;;;;;;;4.88;4.28;;;;;;;3.22;77.11;99019.94;4996179;28;20054;-43
2023/11/11 02:01:53;;;;;;;5.82;4.03;;;;;;;3.24;77.31;99022.53;4986103;28;20669;-46
2023/11/11 02:04:20;;;;;;;6.75;3.45;;;;;;;3.24;77.27;99015.69;4989826;28;20523;-48
2023/11/11 02:06:49;;;;;;;4.57;3.75;;;;;;;3.23;76.97;99021.66;4989343;28;21183;-47
2023/11/11 02:09:21;;;;;;;6.75;3.40;;;;;;;3.21;76.76;99021.63;4989881;28;20050;-42
2023/11/11 02:11:54;;;;;;;5.43;3.30;;;;;;;3.21;76.76;99029.31;4993659;28;20048;-43
2023/11/11 02:14:22;;;;;;;7.70;4.13;;;;;;;3.21;77.30;99028.47;4984311;28;20046;-42
2023/11/11 02:16:49;;;;;;;5.82;4.85;;;;;;;3.21;76.57;99029.31;4982901;28;20551;-43
2023/11/11 02:19:15;;;;;;;5.90;3.13;;;;;;;3.20;76.67;99021.63;4989557;28;20054;-44
2023/11/11 02:21:43;;;;;;;5.70;3.13;;;;;;;3.21;77.45;99023.34;4986020;28;20058;-43
2023/11/11 02:24:11;;;;;;;5.20;3.65;;;;;;;3.22;77.28;99022.50;4983180;28;20045;-52
2023/11/11 02:26:39;;;;;;;8.23;4.13;;;;;;;3.23;77.17;99037.00;4986621;28;20082;-47
2023/11/11 02:29:06;;;;;;;5.22;3.25;;;;;;;3.23;77.29;99037.00;4990325;28;20042;-40
2023/11/11 02:31:32;;;;;;;9.60;3.80;;;;;;;3.25;77.17;99032.78;4989535;28;20046;-42
2023/11/11 02:33:59;;;;;;;4.78;3.20;;;;;;;3.27;77.46;99032.81;4988811;28;20061;-43
2023/11/11 02:36:26;;;;;;;7.15;3.15;;;;;;;3.27;76.84;99038.75;4980868;28;20664;-42
2023/11/11 02:38:52;;;;;;;3.97;3.55;;;;;;;3.28;76.95;99039.63;4978364;28;20065;-45
2023/11/11 02:41:19;;;;;;;4.93;3.35;;;;;;;3.29;76.91;99047.31;4988498;28;20053;-45
2023/11/11 02:43:46;;;;;;;5.25;3.45;;;;;;;3.30;76.85;99048.16;4986708;28;20085;-45
2023/11/11 02:46:15;;;;;;;7.45;3.47;;;;;;;3.30;77.35;99059.28;4983345;28;20500;-50
2023/11/11 02:48:42;;;;;;;5.63;3.50;;;;;;;3.30;76.76;99054.16;4978826;28;20446;-49
2023/11/11 02:51:09;;;;;;;4.38;2.92;;;;;;;3.29;77.54;99057.56;4980898;28;20144;-42
2023/11/11 02:53:36;;;;;;;4.85;2.85;;;;;;;3.29;77.73;99064.38;5007653;28;20042;-42
2023/11/11 02:56:03;;;;;;;6.95;5.03;;;;;;;3.30;77.57;99064.41;4981819;28;20043;-47
2023/11/11 02:58:30;;;;;;;4.40;3.30;;;;;;;3.29;77.54;99067.81;4985460;28;20058;-47
2023/11/11 03:00:56;;;;;;;3.80;3.17;;;;;;;3.29;77.19;99065.25;4986749;28;20051;-47
2023/11/11 03:03:23;;;;;;;4.18;2.97;;;;;;;3.28;76.94;99076.28;4970811;28;20174;-48
2023/11/11 03:05:51;;;;;;;5.05;3.10;;;;;;;3.27;77.20;99072.03;4982963;28;20042;-41
2023/11/11 03:08:18;;;;;;;4.60;3.15;;;;;;;3.27;77.61;99074.59;4987068;28;20174;-43
2023/11/11 03:10:45;;;;;;;3.10;2.75;;;;;;;3.26;77.27;99067.75;4985191;28;20062;-42
2023/11/11 03:13:11;;;;;;;3.92;3.17;;;;;;;3.27;77.73;99072.03;4979837;28;20054;-44
2023/11/11 03:15:38;;;;;;;5.25;3.10;;;;;;;3.26;77.45;99067.75;4977137;28;20114;-44
2023/11/11 03:18:06;;;;;;;4.68;4.20;;;;;;;3.27;77.61;99069.47;4987018;28;20050;-52
2023/11/11 03:20:34;;;;;;;5.75;3.00;;;;;;;3.27;77.73;99069.47;4972109;28;20078;-51
2023/11/11 03:23:02;;;;;;;5.70;3.22;;;;;;;3.26;77.48;99072.88;4987388;28;20050;-50
2023/11/11 03:25:29;;;;;;;8.48;3.65;;;;;;;3.25;77.72;99081.41;4988401;28;20038;-47
2023/11/11 03:27:55;;;;;;;5.32;3.58;;;;;;;3.22;77.79;99071.13;4981578;28;20050;-48
2023/11/11 03:30:22;;;;;;;2.15;1.20;;;;;;;3.21;77.76;99071.97;4982860;28;20443;-43
2023/11/11 03:32:49;;;;;;;7.82;4.15;;;;;;;3.19;77.92;99071.97;4985217;28;20052;-44
2023/11/11 03:35:17;;;;;;;6.32;3.55;;;;;;;3.17;77.29;99072.75;4985915;28;20554;-42
2023/11/11 03:37:45;;;;;;;3.80;2.72;;;;;;;3.15;77.17;99067.66;4982190;28;20047;-42
2023/11/11 03:40:11;;;;;;;7.32;3.35;;;;;;;3.15;77.17;99079.56;4985181;28;20051;-42
2023/11/11 03:42:38;;;;;;;3.90;3.50;;;;;;;3.13;77.54;99076.13;4984123;28;20045;-42
2023/11/11 03:45:05;;;;;;;3.55;3.03;;;;;;;3.12;77.49;99077.84;4980907;28;20053;-46
2023/11/11 03:47:33;;;;;;;3.85;3.55;;;;;;;3.13;78.11;99082.13;4983387;28;20054;-44
2023/11/11 03:49:59;;;;;;;3.92;3.08;;;;;;;3.14;77.42;99081.25;4987815;28;20050;-45
2023/11/11 03:52:26;;;;;;;4.90;3.20;;;;;;;3.14;77.67;99077.88;4984062;28;20491;-43
2023/11/11 03:54:53;;;;;;;7.57;4.30;;;;;;;3.13;77.32;99083.81;4986209;28;20046;-45
2023/11/11 03:57:19;;;;;;;3.92;1.60;;;;;;;3.11;77.67;99093.19;4981516;28;20408;-42
2023/11/11 03:59:46;;;;;;;5.28;4.13;;;;;;;3.11;77.68;99094.03;4981282;28;20077;-44
2023/11/11 04:02:13;;;;;;;5.72;3.22;;;;;;;3.09;78.08;99090.59;4988200;28;20046;-45
2023/11/11 04:04:40;;;;;;;6.00;4.78;;;;;;;3.08;77.98;99089.72;4989192;28;20054;-42
2023/11/11 04:07:07;;;;;;;6.20;3.28;;;;;;;3.10;77.40;99081.22;4988630;28;20046;-43
2023/11/11 04:09:33;;;;;;;3.58;2.28;;;;;;;3.11;78.44;99077.81;4991856;28;20046;-45
2023/11/11 04:12:01;;;;;;;5.05;2.85;;;;;;;3.12;78.24;99070.16;4990956;28;20050;-41
2023/11/11 04:14:27;;;;;;;4.15;3.10;;;;;;;3.14;78.02;99067.63;4992016;28;20057;-47
2023/11/11 04:16:54;;;;;;;3.38;2.08;;;;;;;3.17;77.91;99072.75;4988219;28;20042;-39
2023/11/11 04:19:21;;;;;;;5.40;1.13;;;;;;;3.20;77.97;99072.81;4989106;28;20408;-44
2023/11/11 04:21:50;;;;;;;4.18;2.92;;;;;;;3.22;78.64;99073.69;4988605;28;20058;-47
2023/11/11 04:24:18;;;;;;;3.58;2.47;;;;;;;3.23;78.65;99075.41;4984445;28;20101;-45
2023/11/11 04:26:45;;;;;;;3.58;2.83;;;;;;;3.24;78.15;99074.56;4987521;28;20074;-54
2023/11/11 04:29:11;;;;;;;5.22;2.33;;;;;;;3.25;78.77;99080.53;4989398;28;20058;-45
2023/11/11 04:31:38;;;;;;;4.35;1.50;;;;;;;3.25;78.05;99073.72;4989295;28;20433;-41
2023/11/11 04:34:05;;;;;;;2.78;2.08;;;;;;;3.25;78.30;99073.72;4991407;28;20042;-46
2023/11/11 04:36:32;;;;;;;5.00;2.38;;;;;;;3.27;78.10;99077.16;4991567;28;20080;-40
2023/11/11 04:38:59;;;;;;;2.28;2.08;;;;;;;3.28;78.84;99086.53;4984313;28;20496;-43
2023/11/11 04:41:27;;;;;;;2.67;2.30;;;;;;;3.29;78.67;99078.03;4997352;28;20053;-45
2023/11/11 04:43:54;;;;;;;2.80;1.95;;;;;;;3.30;78.83;99084.88;4990481;28;20078;-45
2023/11/11 04:46:21;;;;;;;2.40;2.03;;;;;;;3.32;79.03;99085.72;4990457;28;20042;-42
2023/11/11 04:48:48;;;;;;;2.53;2.33;;;;;;;3.32;78.53;99087.44;4985861;28;20046;-45
2023/11/11 04:51:16;;;;;;;2.72;2.53;;;;;;;3.35;78.91;99097.72;4992015;28;20054;-42
2023/11/11 04:53:43;;;;;;;2.78;2.58;;;;;;;3.37;79.04;99100.31;4991701;28;20050;-53
2023/11/11 04:56:09;;;;;;;3.88;2.72;;;;;;;3.37;78.47;99105.44;4986828;28;20047;-47
2023/11/11 04:58:38;;;;;;;3.40;2.70;;;;;;;3.38;79.12;99113.09;4991237;28;20138;-41
2023/11/11 05:01:05;;;;;;;5.20;2.63;;;;;;;3.39;78.71;99108.84;4989208;28;20050;-42
2023/11/11 05:03:32;;;;;;;2.65;2.30;;;;;;;3.39;78.60;99113.97;4987264;28;20519;-46
2023/11/11 05:05:59;;;;;;;2.22;2.03;;;;;;;3.38;78.92;99102.03;4988082;28;20718;-47
2023/11/11 05:08:25;;;;;;;4.25;2.42;;;;;;;3.38;78.52;99107.97;4991099;28;20140;-43
2023/11/11 05:10:52;;;;;;;4.18;2.45;;;;;;;3.39;78.64;99098.59;4986206;28;20042;-42
2023/11/11 05:13:20;;;;;;;2.13;1.83;;;;;;;3.40;78.89;99095.19;4989993;28;20065;-48
2023/11/11 05:15:58;;;;;;;2.28;1.67;;;;;;;3.39;78.81;99109.72;4987265;28;20112;-39
2023/11/11 05:18:26;;;;;;;2.30;2.10;;;;;;;3.41;79.39;99102.06;4994558;28;20049;-47
2023/11/11 05:20:53;;;;;;;2.15;2.05;;;;;;;3.41;79.19;99113.13;5012535;28;20103;-47
2023/11/11 05:23:20;;;;;;;2.40;2.15;;;;;;;3.45;79.44;99116.59;5012904;28;20045;-44
2023/11/11 05:25:47;;;;;;;2.35;2.15;;;;;;;3.49;79.01;99126.03;5006129;28;20099;-46
2023/11/11 05:28:13;;;;;;;2.15;1.95;;;;;;;3.50;79.11;99122.63;5004996;28;20084;-42
2023/11/11 05:30:40;;;;;;;2.70;2.38;;;;;;;3.51;79.57;99124.34;5008862;28;20089;-45
2023/11/11 05:33:07;;;;;;;3.15;2.92;;;;;;;3.54;79.51;99124.38;5002875;28;20510;-41
2023/11/11 05:35:34;;;;;;;2.05;1.88;;;;;;;3.55;79.89;99126.09;5006929;28;20056;-42
2023/11/11 05:38:00;;;;;;;2.50;2.30;;;;;;;3.57;79.71;99132.09;5003802;28;20038;-41
2023/11/11 05:40:29;;;;;;;2.47;2.15;;;;;;;3.59;79.34;99132.13;5008451;28;20058;-42
2023/11/11 05:42:57;;;;;;;4.45;4.13;;;;;;;3.60;78.98;99128.72;5006528;28;20042;-49
2023/11/11 05:45:24;;;;;;;3.15;1.75;;;;;;;3.60;79.51;99131.28;5004749;28;20053;-45
2023/11/11 05:47:51;;;;;;;3.33;3.13;;;;;;;3.62;79.80;99133.84;5001391;28;20076;-46
2023/11/11 05:50:18;;;;;;;2.30;2.15;;;;;;;3.63;79.82;99143.25;5007142;28;20056;-46
2023/11/11 05:52:45;;;;;;;2.60;2.40;;;;;;;3.65;79.63;99139.00;5006345;28;20053;-47
2023/11/11 05:55:12;;;;;;;4.40;2.28;;;;;;;3.68;80.18;99136.50;5008983;28;20046;-41
2023/11/11 05:57:38;;;;;;;2.35;2.17;;;;;;;3.73;80.25;99139.94;5007037;28;20053;-44
2023/11/11 06:00:11;;;;;;;4.20;2.40;;;;;;;3.77;79.91;99144.25;5006288;28;20077;-49
2023/11/11 06:02:38;;;;;;;1.60;0.80;;;;;;;3.78;79.80;99142.56;5006157;28;20449;-44
2023/11/11 06:05:05;;;;;;;3.28;3.03;;;;;;;3.79;79.70;99145.16;5007991;28;20045;-42
2023/11/11 06:07:32;;;;;;;1.98;1.88;;;;;;;3.77;80.07;99146.81;5008476;28;20499;-47
2023/11/11 06:09:59;;;;;;;1.92;1.83;;;;;;;3.80;79.69;99151.97;5008525;28;20049;-49
2023/11/11 06:12:26;;;;;;;2.55;0.77;;;;;;;3.81;80.37;99156.25;5006859;28;20418;-47
2023/11/11 06:14:53;;;;;;;2.45;1.95;;;;;;;3.81;80.10;99148.56;5006654;28;20053;-44
2023/11/11 06:17:19;;;;;;;2.20;2.00;;;;;;;3.85;79.85;99140.06;5011519;28;20081;-47
2023/11/11 06:19:46;;;;;;;3.40;2.95;;;;;;;3.85;80.18;99142.63;5008702;28;20050;-46
2023/11/11 06:22:12;;;;;;;4.35;2.25;;;;;;;3.89;80.21;99155.47;5008980;28;20112;-45
2023/11/11 06:24:39;;;;;;;2.03;1.50;;;;;;;3.88;79.76;99164.84;5006004;28;20046;-51
2023/11/11 06:27:08;;;;;;;1.98;1.30;;;;;;;3.90;80.11;99157.19;5006635;28;20072;-45
2023/11/11 06:29:35;;;;;;;2.33;0.43;;;;;;;3.92;80.19;99165.75;5009438;28;20419;-39
2023/11/11 06:32:03;;;;;;;3.13;2.10;;;;;;;3.93;80.32;99172.59;5008601;28;20045;-44
2023/11/11 06:34:29;;;;;;;2.75;2.55;;;;;;;3.93;80.21;99181.16;5009135;28;20507;-46
2023/11/11 06:36:57;;;;;;;3.78;0.70;;;;;;;3.94;80.25;99190.56;5000683;28;20443;-51
2023/11/11 06:39:24;;;;;;;5.32;1.98;;;;;;;3.94;79.72;99193.13;5004708;28;20046;-46
2023/11/11 06:41:51;;;;;;;4.18;2.25;;;;;;;3.94;80.10;99194.81;5003662;28;20081;-45
2023/11/11 06:44:17;;;;;;;16.45;1.60;;;;;;;3.95;80.07;99191.41;5005608;28;20037;-47
2023/11/11 06:46:44;;;;;;;1.67;1.58;;;;;;;3.94;80.40;99194.81;5006036;28;20050;-41
2023/11/11 06:49:11;;;;;;;5.45;2.08;;;;;;;3.94;80.02;99195.69;5006884;28;20057;-42
2023/11/11 06:51:38;;;;;;;4.13;0.95;;;;;;;3.95;80.57;99193.97;5004648;28;20419;-44
2023/11/11 06:54:07;;;;;;;2.55;2.10;;;;;;;3.94;80.08;99194.81;5002320;28;20107;-45
2023/11/11 06:56:34;;;;;;;5.00;2.55;;;;;;;3.94;79.98;99194.81;5003712;28;20054;-49
2023/11/11 06:59:02;;;;;;;8.82;5.60;;;;;;;3.92;79.79;99206.75;5002141;28;20507;-46
2023/11/11 07:01:30;;;;;;;25.58;13.52;;;;;;;3.89;79.82;99216.97;5003961;28;20052;-44
2023/11/11 07:03:57;;;;;;;15.23;8.73;;;;;;;3.85;79.81;99216.94;5006109;28;20490;-45
2023/11/11 07:06:24;;;;;;;8.27;6.47;;;;;;;3.81;79.51;99225.41;5000452;28;21181;-47
2023/11/11 07:08:51;;;;;;;6.07;4.93;;;;;;;3.78;79.47;99225.38;5002246;28;20226;-44
2023/11/11 07:11:19;;;;;;;6.07;5.47;;;;;;;3.76;79.54;99231.31;5003392;28;20056;-41
2023/11/11 07:13:46;;;;;;;8.43;4.65;;;;;;;3.73;79.35;99232.16;5004506;28;20061;-48
2023/11/11 07:16:16;;;;;;;4.90;3.97;;;;;;;3.71;79.69;99234.69;4999696;28;20140;-45
2023/11/11 07:18:44;;;;;;;6.03;3.40;;;;;;;3.71;79.31;99233.81;5003435;28;20050;-43
2023/11/11 07:21:22;;;;;;;5.40;4.30;;;;;;;3.71;79.81;99241.50;5001802;28;20054;-44
2023/11/11 07:23:49;;;;;;;6.88;4.05;;;;;;;3.70;79.46;99240.66;4999062;28;20042;-47
2023/11/11 07:26:17;;;;;;;2.92;2.72;;;;;;;3.70;80.03;99243.22;4994613;28;20062;-46
2023/11/11 07:28:45;;;;;;;4.10;3.55;;;;;;;3.71;79.63;99244.06;5000033;28;20060;-41
2023/11/11 07:31:14;;;;;;;28.73;15.55;;;;;;;3.72;79.70;99251.78;5000670;28;20115;-44
2023/11/11 07:33:42;;;;;;;18.27;10.52;;;;;;;3.73;79.72;99253.53;5003665;28;20514;-46
2023/11/11 07:36:10;;;;;;;16.77;9.13;;;;;;;3.75;80.05;99250.94;5000095;28;20060;-49
2023/11/11 07:38:39;;;;;;;10.38;7.03;;;;;;;3.78;79.71;99256.13;5006965;28;20057;-41
2023/11/11 07:41:07;;;;;;;5.53;3.72;;;;;;;3.81;79.81;99256.16;5011260;28;20136;-46
2023/11/11 07:43:35;;;;;;;4.43;2.50;;;;;;;3.82;79.92;99251.91;5001538;28;20069;-39
2023/11/11 07:46:06;;;;;;;6.40;3.22;;;;;;;3.82;79.22;99257.88;4998006;28;20504;-46
2023/11/11 07:48:33;;;;;;;5.82;3.58;;;;;;;3.85;79.29;99257.06;5006847;28;20065;-42
2023/11/11 07:51:02;;;;;;;6.18;3.90;;;;;;;3.95;79.46;99255.47;5009477;28;20054;-51
2023/11/11 07:53:29;;;;;;;6.35;4.65;;;;;;;4.13;79.70;99259.06;5005379;28;20132;-49
2023/11/11 07:55:57;;;;;;;5.10;3.60;;;;;;;4.29;79.61;99252.41;5006976;28;20049;-40
2023/11/11 07:58:24;;;;;;;7.10;5.00;;;;;;;4.41;79.09;99252.53;4999150;28;20050;-47
2023/11/11 08:00:54;;;;;;;6.30;4.88;;;;;;;4.46;79.00;99255.16;5010916;28;20080;-45
2023/11/11 08:03:21;;;;;;;7.78;4.15;;;;;;;4.51;78.81;99258.59;5010440;28;20054;-40
2023/11/11 08:05:48;;;;;;;9.70;5.35;;;;;;;4.63;79.42;99258.69;5003499;28;20506;-41
2023/11/11 08:08:14;;;;;;;5.95;4.20;;;;;;;4.83;78.75;99249.47;5008437;28;20499;-45
2023/11/11 08:10:44;;;;;;;8.65;4.00;;;;;;;5.00;78.20;99252.16;5010474;28;20049;-44
2023/11/11 08:13:11;;;;;;;6.53;4.45;;;;;;;5.16;78.67;99254.84;5011385;28;20053;-44
2023/11/11 08:15:38;;;;;;;12.63;7.38;;;;;;;5.24;77.53;99260.88;5001036;28;20053;-42
2023/11/11 08:18:05;;;;;;;7.55;5.38;;;;;;;5.27;78.20;99255.75;5008580;28;20054;-45
2023/11/11 08:20:32;;;;;;;6.68;4.13;;;;;;;5.36;78.18;99260.94;5002102;28;20046;-45
2023/11/11 08:22:58;;;;;;;8.30;4.47;;;;;;;5.55;78.74;99273.03;4995937;28;20042;-44
2023/11/11 08:25:25;;;;;;;11.13;2.65;;;;;;;6.00;79.05;99270.63;5012562;28;20444;-47
2023/11/11 08:27:52;;;;;;;5.15;3.92;;;;;;;6.46;77.82;99272.53;5013107;28;20471;-45
2023/11/11 08:30:21;;;;;;;5.85;4.60;;;;;;;6.69;78.03;99272.53;4992363;28;20045;-45
2023/11/11 08:32:49;;;;;;;5.03;3.67;;;;;;;6.83;76.10;99276.84;5000762;28;20054;-43
2023/11/11 08:35:16;;;;;;;4.90;3.30;;;;;;;7.14;76.61;99281.97;4999230;28;20050;-43
2023/11/11 08:37:43;;;;;;;3.95;2.88;;;;;;;7.71;75.58;99283.53;4999116;28;20077;-48
2023/11/11 08:40:11;;;;;;;3.97;3.13;;;;;;;8.13;74.62;99277.38;5002597;28;20058;-47
2023/11/11 08:42:39;;;;;;;6.50;3.88;;;;;;;8.42;74.77;99273.78;5001640;28;20061;-42
2023/11/11 08:45:09;;;;;;;4.57;3.95;;;;;;;8.76;75.26;99284.75;4999823;28;20057;-42
2023/11/11 08:47:37;;;;;;;7.57;4.43;;;;;;;9.25;74.34;99284.34;5007860;28;20774;-41
2023/11/11 08:50:09;;;;;;;15.00;8.80;;;;;;;9.84;74.75;99287.16;5004807;28;20051;-46
2023/11/11 08:52:37;;;;;;;14.52;7.82;;;;;;;10.73;73.34;99291.16;4998649;28;20045;-46
2023/11/11 08:55:04;;;;;;;9.95;7.20;;;;;;;11.55;72.15;99300.13;5001736;28;20046;-45
2023/11/11 08:57:31;;;;;;;14.27;7.00;;;;;;;12.25;72.18;99295.31;4993100;28;20146;-48
2023/11/11 08:59:58;;;;;;;8.80;5.63;;;;;;;12.95;71.23;99296.31;4999979;28;20052;-46
2023/11/11 09:02:24;;;;;;;8.18;7.35;;;;;;;13.65;69.45;99296.28;5002118;28;20042;-46
2023/11/11 09:04:52;;;;;;;5.03;2.70;;;;;;;14.36;68.61;99292.53;5000949;28;20563;-43
2023/11/11 09:07:20;;;;;;;5.53;3.58;;;;;;;15.07;67.68;99304.22;5000367;28;20567;-40
2023/11/11 09:09:48;;;;;;;9.05;4.72;;;;;;;15.79;66.60;99307.84;5003696;28;20521;-47
2023/11/11 09:12:15;;;;;;;3.63;2.63;;;;;;;16.45;65.66;99291.47;4994601;28;20053;-46
2023/11/11 09:14:42;;;;;;;5.30;2.00;;;;;;;17.04;64.37;99308.31;5002059;28;20516;-44
2023/11/11 09:17:08;;;;;;;2.40;1.63;;;;;;;17.55;63.01;99307.97;4999214;28;20050;-48
2023/11/11 09:19:35;;;;;;;4.13;1.67;;;;;;;18.05;61.85;99303.16;5000688;28;20136;-45
2023/11/11 09:22:04;;;;;;;2.70;2.42;;;;;;;18.39;61.20;99312.09;4997965;28;20080;-48
2023/11/11 09:24:31;;;;;;;4.10;2.15;;;;;;;18.72;60.16;99306.19;5000949;28;20077;-43
2023/11/11 09:26:58;;;;;;;1.92;1.48;;;;;;;19.02;59.11;99315.22;4997841;28;20062;-43
2023/11/11 09:29:27;;;;;;;4.18;1.63;;;;;;;19.36;57.98;99320.59;5001796;28;20053;-45
2023/11/11 09:31:54;;;;;;;3.85;2.33;;;;;;;19.68;57.51;99320.69;4998182;28;20045;-46
2023/11/11 09:34:23;;;;;;;2.30;1.75;;;;;;;20.10;56.51;99330.81;5001567;28;20125;-48
2023/11/11 09:36:50;;;;;;;2.42;1.15;;;;;;;20.45;55.80;99325.38;4992945;28;20124;-46
2023/11/11 09:39:17;;;;;;;5.30;2.58;;;;;;;20.68;54.60;99323.25;4995991;28;20058;-41
2023/11/11 09:41:44;;;;;;;4.03;1.90;;;;;;;21.05;55.18;99320.31;5000248;28;20136;-42
2023/11/11 09:44:11;;;;;;;2.97;1.90;;;;;;;21.36;53.81;99331.69;4998966;28;20038;-45
2023/11/11 09:46:53;;;;;;;3.60;1.15;;;;;;;21.57;52.61;99340.09;5003100;28;20050;-47
2023/11/11 09:49:21;;;;;;;2.80;1.42;;;;;;;21.82;51.80;99338.63;5003225;28;20048;-47
2023/11/11 09:51:48;;;;;;;1.63;0.93;;;;;;;22.01;51.50;99337.47;5002091;28;20109;-48
2023/11/11 09:54:16;;;;;;;3.67;1.63;;;;;;;22.25;50.70;99344.78;4999892;28;20510;-47
2023/11/11 09:56:44;;;;;;;2.15;1.42;;;;;;;22.50;50.18;99342.41;4996793;28;20064;-43
2023/11/11 09:59:15;;;;;;;3.45;1.10;;;;;;;22.71;48.93;99345.47;4995324;28;20034;-43
2023/11/11 10:01:44;;;;;;;2.90;1.30;;;;;;;22.73;47.87;99344.41;5000846;28;20480;-42
2023/11/11 10:04:11;;;;;;;3.47;3.17;;;;;;;22.84;47.68;99348.16;4988847;28;20442;-47
2023/11/11 10:06:39;;;;;;;7.40;3.28;;;;;;;22.96;47.23;99344.72;5008208;28;20407;-43
2023/11/11 10:09:08;;;;;;;7.13;5.47;;;;;;;23.04;47.05;99357.41;5006108;28;20228;-48
2023/11/11 10:11:35;;;;;;;4.00;2.35;;;;;;;23.10;46.53;99351.72;5007829;28;20046;-44
2023/11/11 10:14:03;;;;;;;2.85;1.45;;;;;;;23.26;46.18;99355.16;5008734;28;20042;-46
2023/11/11 10:16:32;;;;;;;2.95;2.55;;;;;;;23.29;45.65;99357.56;5001864;28;20046;-49
2023/11/11 10:18:59;;;;;;;3.47;1.10;;;;;;;23.15;45.16;99355.84;5008788;28;20054;-45
2023/11/11 10:21:26;;;;;;;2.38;1.20;;;;;;;22.96;44.38;99357.06;5004138;28;20107;-46
2023/11/11 10:23:55;;;;;;;2.10;1.30;;;;;;;22.43;44.95;99355.13;5004780;28;20092;-44
2023/11/11 10:26:22;;;;;;;2.67;1.25;;;;;;;21.81;43.56;99360.66;5006743;28;20068;-45
2023/11/11 10:28:50;;;;;;;3.10;1.35;;;;;;;21.14;44.56;99374.22;5003536;28;20061;-49
2023/11/11 10:31:18;;;;;;;2.80;1.40;;;;;;;20.25;45.09;99377.31;5003044;28;20057;-43
2023/11/11 10:33:50;;;;;;;2.80;1.15;;;;;;;19.50;46.17;99380.28;5007490;28;20046;-41
2023/11/11 10:36:19;;;;;;;4.03;1.58;;;;;;;18.93;46.94;99384.75;5006493;28;20054;-46
2023/11/11 10:38:46;;;;;;;4.38;1.42;;;;;;;18.46;48.30;99379.06;5003130;28;20053;-50
2023/11/11 10:41:14;;;;;;;4.45;1.70;;;;;;;17.94;48.73;99384.88;4999254;28;20062;-43
2023/11/11 10:43:42;;;;;;;2.10;1.50;;;;;;;17.50;50.13;99383.25;4995945;28;20077;-51
2023/11/11 10:46:09;;;;;;;4.50;1.80;;;;;;;17.09;50.32;99385.75;4991948;28;20046;-47
2023/11/11 10:48:37;;;;;;;3.78;1.65;;;;;;;16.64;50.29;99392.69;4996313;28;20130;-48
2023/11/11 10:51:07;;;;;;;4.53;2.15;;;;;;;16.27;51.54;99391.47;4995396;28;20136;-46
2023/11/11 10:53:36;;;;;;;3.25;2.03;;;;;;;15.97;52.38;99389.09;5000389;28;20046;-49
2023/11/11 10:56:05;;;;;;;3.28;1.92;;;;;;;15.68;52.30;99397.84;4999568;28;20396;-50
2023/11/11 10:58:37;;;;;;;2.83;1.27;;;;;;;15.40;53.31;99396.16;4997851;28;20076;-47
2023/11/11 11:01:04;;;;;;;5.55;1.50;;;;;;;15.14;53.13;99400.47;4992754;28;20103;-45
2023/11/11 11:03:31;;;;;;;10.07;3.03;;;;;;;14.92;54.33;99399.47;4998186;28;20058;-53
2023/11/11 11:06:12;;;;;;;22.90;6.63;;;;;;;14.78;54.52;99398.13;4998812;28;20426;-47
2023/11/11 11:11:56;;;;;;;6.30;2.38;;;;;;;14.48;55.31;99385.09;5021115;28;20404;-49
2023/11/11 11:17:40;;;;;;;11.45;5.00;;;;;;;14.50;55.73;99383.31;5074349;27;20392;-47
2023/11/11 11:20:09;;;;;;;4.93;4.00;;;;;;;14.48;55.61;99388.56;5024611;28;20045;-45
2023/11/11 11:22:37;;;;;;;16.13;6.95;;;;;;;14.42;55.79;99391.31;5023968;28;20048;-47
2023/11/11 11:28:18;;;;;;;11.50;3.72;;;;;;;14.01;55.92;99387.25;5035322;28;20416;-47
2023/11/11 11:30:49;;;;;;;7.32;2.50;;;;;;;13.82;56.31;99379.09;5020649;28;20124;-50
2023/11/11 11:33:19;;;;;;;2.15;0.98;;;;;;;13.62;56.60;99372.66;5017527;28;20518;-42
2023/11/11 11:35:48;;;;;;;1.88;1.25;;;;;;;13.44;56.79;99365.34;5018523;28;20049;-47
2023/11/11 11:38:35;;;;;;;4.82;1.92;;;;;;;13.25;56.69;99368.38;5014926;28;20050;-46
2023/11/11 11:43:41;;;;;;;2.05;0.85;;;;;;;12.89;57.02;99368.38;5022213;28;20445;-45
2023/11/11 11:46:09;;;;;;;3.30;2.15;;;;;;;12.77;57.20;99359.97;5003001;28;20039;-50
2023/11/11 11:48:39;;;;;;;5.68;1.92;;;;;;;12.67;58.13;99364.50;5005702;28;20057;-47
2023/11/11 11:51:09;;;;;;;2.05;1.15;;;;;;;12.60;57.69;99353.41;4988976;28;20530;-46
2023/11/11 11:53:38;;;;;;;4.35;1.23;;;;;;;12.53;57.76;99362.22;4995237;28;20096;-48